Portada
METAR-TAF:

METAR-TAF

Aeropuertos :

Agaña, Guam, Estados Unidos

Aeropuerto Internacional Antonio B. Won Pat

latitud: 13-29N, longitud: 144-48E, altitud: 91 m

Observación

El informe se hizo hace 41 minutos, a las 08:54 UTC
Viento 11 kt del este
Temperatura 28°C
Humedad 84%
Presión 1011 hPa
Visibilidad: 16.1 km
Cielo despejado

METAR: PGUM 190854Z 08011KT 10SM CLR 28/25 A2986 RMK AO2 SLP102 T02830250 53003

Hora: 19:35 (09:35 UTC)

Pronóstico

El informe se hizo hace 4 horas y 15 minutos, a las 05:20 UTC
Pronóstico válido del 19 a las 06 UTC al 20 a las 12 UTC
Viento 16 kt del este
Visibilidad: 10 km
Nubes dispersas a una altura de 2000 ft
A partir de las 19 a las 0800 UTC
Viento 10 kt del este
Visibilidad: 10 km
Escasas nubes a una altura de 2000 ft

TAF: PGUM 190520Z 1906/2012 09016KT P6SM SCT020 FM190800 08010KT P6SM FEW020

Observaciones y pronósticos meteorológicos de más de 4000 aeropuertos (mensajes METAR y TAF).

Los puntos amarillos y rojos representan las estaciones disponibles.

Ponga el ratón en el punto deseado para ver el nombre de la estación.

Haga clic para ver las observaciones y los pronósticos meteorológicos.

Para cambiar el mapa : haga clic en los botones verdes con una cruz de color negro para hacer un zoom, en el botón verde con un guión para alejar o en las flechas verdes para mapas adyacentes.


METAR-TAF: